Miston, Tennessee
Current Conditions -  °F | °C
As of 5:55 AM on Sunday 21 Dec 2014 (Local Time) from KDYR Reporting Station
Clear Clear  
Wind Chill: 23°   Ceiling: Unl
Heat Index: 28°   Visibility: 10mi
Dew Point: 16°   Wind: 5mph
Humidity: 59%   Direction: 70°ENE
Pressure: 30.25"   Gusts: NA
Location:  36.16°N, 89.49°W
Report Text: KDYR 211155Z 07004KT 10SM CLR M02/M09 A3025 RMK AO1 10010 21020 57003
Loading
Personal Weather Stations






























Interactive Weather Map New forecast layout! Learn more

10-Day Weather Forecast

Advertisements
Track Severe Weather on mobile